La rose des vents
Donnes mto: Semaine 08/10/07 - 14/10/07 (S 41)
Date Horaire Temp. E. Hum. E. P.atmo. Pluie Vent 1mn Direction Ensoleilleme Ev.Tr. Solaire P. de rose Temp au vent Rafales
08/10/2007 00:00 18,7 C 82 % 1016,4 hPa 0,0 l/m 6,5 km/h (2 Bft) O-SO 0,00 h 0,051 mm 0 W/m 15,6 C 18,7 C 8,7 km/h (2 Bft)
08/10/2007 01:00 18,6 C 81 % 1016,4 hPa 0,0 l/m 1,5 km/h (1 Bft) O-SO 0,00 h 0,025 mm 0 W/m 15,4 C 18,6 C 2,3 km/h (1 Bft)
08/10/2007 02:00 18,2 C 82 % 1016,5 hPa 0,0 l/m 0,4 km/h (0 Bft) O-SO 0,00 h 0,025 mm 0 W/m 15,1 C 18,2 C 0,8 km/h (0 Bft)
08/10/2007 03:00 17,4 C 85 % 1016,4 hPa 0,0 l/m 0,7 km/h (0 Bft) O-SO 0,00 h 0,025 mm 0 W/m 14,8 C 17,4 C 1,9 km/h (1 Bft)
08/10/2007 04:00 16,8 C 86 % 1016,3 hPa 0,0 l/m 0,7 km/h (0 Bft) O 0,00 h 0,025 mm 0 W/m 14,5 C 16,8 C 1,9 km/h (1 Bft)
08/10/2007 05:00 17,2 C 84 % 1016,4 hPa 0,0 l/m 1,3 km/h (1 Bft) O 0,00 h 0,025 mm 0 W/m 14,5 C 17,2 C 3,1 km/h (1 Bft)
08/10/2007 06:00 17,3 C 82 % 1016,5 hPa 0,0 l/m 1,1 km/h (1 Bft) O 0,00 h 0,025 mm 0 W/m 14,2 C 17,3 C 2,1 km/h (1 Bft)
08/10/2007 07:00 16,9 C 82 % 1016,5 hPa 0,0 l/m 0,5 km/h (0 Bft) O-NO 0,02 h 0,025 mm 11 W/m 13,7 C 16,9 C 1,3 km/h (1 Bft)
08/10/2007 08:00 17,5 C 81 % 1017,0 hPa 0,0 l/m 0,1 km/h (0 Bft) NO 0,10 h 0,000 mm 68 W/m 14,3 C 17,5 C 0,4 km/h (0 Bft)
08/10/2007 09:00 18,9 C 78 % 1017,3 hPa 0,0 l/m 0,5 km/h (0 Bft) N-NE 0,03 h 0,051 mm 147 W/m 14,9 C 18,9 C 1,4 km/h (1 Bft)
08/10/2007 10:00 20,0 C 71 % 1017,5 hPa 0,0 l/m 7,3 km/h (2 Bft) SO 0,82 h 0,102 mm 314 W/m 14,7 C 20,0 C 10,8 km/h (2 Bft)
08/10/2007 11:00 21,1 C 66 % 1017,5 hPa 0,0 l/m 12,9 km/h (3 Bft) S-SO 0,82 h 0,229 mm 421 W/m 14,5 C 21,1 C 17,9 km/h (3 Bft)
08/10/2007 12:00 21,4 C 67 % 1017,5 hPa 0,0 l/m 13,7 km/h (3 Bft) O-SO 0,43 h 0,330 mm 424 W/m 14,9 C 21,4 C 18,9 km/h (3 Bft)
08/10/2007 13:00 21,7 C 70 % 1017,2 hPa 0,0 l/m 15,5 km/h (3 Bft) S-SE 0,83 h 0,330 mm 534 W/m 16,0 C 21,7 C 21,2 km/h (4 Bft)
08/10/2007 14:00 21,2 C 71 % 1017,0 hPa 0,0 l/m 14,8 km/h (3 Bft) S 0,95 h 0,381 mm 445 W/m 15,7 C 21,2 C 20,5 km/h (4 Bft)
08/10/2007 15:00 21,0 C 71 % 1016,8 hPa 0,0 l/m 9,4 km/h (2 Bft) S 0,92 h 0,356 mm 445 W/m 15,4 C 21,0 C 14,0 km/h (3 Bft)
08/10/2007 16:00 20,7 C 70 % 1016,6 hPa 0,0 l/m 11,1 km/h (2 Bft) S-SE 0,73 h 0,305 mm 280 W/m 15,1 C 20,7 C 15,6 km/h (3 Bft)
08/10/2007 17:00 19,3 C 74 % 1016,7 hPa 0,0 l/m 5,2 km/h (1 Bft) S-SE 0,33 h 0,203 mm 119 W/m 14,6 C 19,3 C 8,1 km/h (2 Bft)
08/10/2007 18:00 18,6 C 76 % 1017,0 hPa 0,0 l/m 2,3 km/h (1 Bft) S-SE 0,00 h 0,102 mm 36 W/m 14,4 C 18,6 C 4,5 km/h (1 Bft)
08/10/2007 19:00 18,1 C 79 % 1017,3 hPa 0,0 l/m 1,5 km/h (1 Bft) S-SE 0,00 h 0,025 mm 0 W/m 14,4 C 18,1 C 2,6 km/h (1 Bft)
08/10/2007 20:00 18,0 C 79 % 1017,4 hPa 0,0 l/m 0,0 km/h (0 Bft) N 0,00 h 0,000 mm 0 W/m 14,2 C 18,0 C 0,0 km/h (0 Bft)
08/10/2007 21:00 17,6 C 79 % 1017,6 hPa 0,0 l/m 0,0 km/h (0 Bft) N 0,00 h 0,025 mm 0 W/m 14,0 C 17,6 C 0,1 km/h (0 Bft)
08/10/2007 22:00 16,7 C 82 % 1017,6 hPa 0,0 l/m 0,0 km/h (0 Bft) N 0,00 h 0,025 mm 0 W/m 13,6 C 16,7 C 0,5 km/h (0 Bft)
08/10/2007 23:00 16,2 C 85 % 1017,6 hPa 0,0 l/m 0,2 km/h (0 Bft) S-SE 0,00 h 0,025 mm 0 W/m 13,6 C 16,2 C 1,2 km/h (1 Bft)
09/10/2007 00:00 16,4 C 86 % 1017,6 hPa 0,0 l/m 1,2 km/h (1 Bft) S-SE 0,00 h 0,025 mm 0 W/m 14,1 C 16,4 C 2,5 km/h (1 Bft)
09/10/2007 01:00 16,0 C 86 % 1017,7 hPa 0,0 l/m 1,7 km/h (1 Bft) SO 0,00 h 0,025 mm 0 W/m 13,7 C 16,0 C 3,8 km/h (1 Bft)
09/10/2007 02:00 15,7 C 87 % 1017,7 hPa 0,0 l/m 2,0 km/h (1 Bft) SO 0,00 h 0,025 mm 0 W/m 13,6 C 15,7 C 3,6 km/h (1 Bft)
09/10/2007 03:00 15,6 C 87 % 1017,2 hPa 0,0 l/m 2,0 km/h (1 Bft) SO 0,00 h 0,025 mm 0 W/m 13,4 C 15,6 C 3,8 km/h (1 Bft)
09/10/2007 04:00 15,6 C 87 % 1016,8 hPa 0,0 l/m 2,2 km/h (1 Bft) SO 0,00 h 0,025 mm 0 W/m 13,4 C 15,6 C 3,3 km/h (1 Bft)
09/10/2007 05:00 15,7 C 85 % 1016,7 hPa 0,0 l/m 3,2 km/h (1 Bft) O-NO 0,00 h 0,025 mm 0 W/m 13,1 C 15,7 C 4,6 km/h (1 Bft)
09/10/2007 06:00 15,0 C 85 % 1016,8 hPa 0,0 l/m 2,3 km/h (1 Bft) O-NO 0,00 h 0,025 mm 0 W/m 12,5 C 15,0 C 4,6 km/h (1 Bft)
09/10/2007 07:00 14,8 C 85 % 1017,1 hPa 0,0 l/m 4,4 km/h (1 Bft) O-NO 0,00 h 0,025 mm 10 W/m 12,4 C 14,8 C 6,7 km/h (2 Bft)
09/10/2007 08:00 15,5 C 82 % 1017,4 hPa 0,0 l/m 3,6 km/h (1 Bft) NO 0,42 h 0,025 mm 82 W/m 12,4 C 15,5 C 5,6 km/h (1 Bft)
09/10/2007 09:00 18,2 C 71 % 1017,7 hPa 0,0 l/m 0,7 km/h (0 Bft) NO 0,88 h 0,051 mm 264 W/m 12,9 C 18,2 C 1,7 km/h (1 Bft)
09/10/2007 10:00 20,9 C 64 % 1017,9 hPa 0,0 l/m 2,9 km/h (1 Bft) E 1,00 h 0,152 mm 414 W/m 13,7 C 20,9 C 5,4 km/h (1 Bft)
09/10/2007 11:00 21,9 C 62 % 1017,7 hPa 0,0 l/m 5,4 km/h (1 Bft) S-SE 1,00 h 0,254 mm 505 W/m 14,2 C 21,9 C 9,3 km/h (2 Bft)
09/10/2007 12:00 22,5 C 62 % 1017,6 hPa 0,0 l/m 7,4 km/h (2 Bft) S 1,00 h 0,330 mm 581 W/m 14,8 C 22,5 C 12,8 km/h (3 Bft)
09/10/2007 13:00 22,9 C 60 % 1017,4 hPa 0,0 l/m 9,2 km/h (2 Bft) SE 1,00 h 0,406 mm 614 W/m 14,7 C 22,9 C 16,1 km/h (3 Bft)
09/10/2007 14:00 22,1 C 67 % 1017,4 hPa 0,0 l/m 11,8 km/h (2 Bft) E 0,85 h 0,432 mm 516 W/m 15,6 C 22,1 C 17,8 km/h (3 Bft)
09/10/2007 15:00 20,7 C 73 % 1017,8 hPa 0,0 l/m 9,8 km/h (2 Bft) E 0,17 h 0,381 mm 289 W/m 15,7 C 20,7 C 15,2 km/h (3 Bft)
09/10/2007 16:00 19,7 C 71 % 1017,9 hPa 0,0 l/m 5,1 km/h (1 Bft) S-SE 0,38 h 0,203 mm 200 W/m 14,2 C 19,7 C 9,1 km/h (2 Bft)
09/10/2007 17:00 19,9 C 65 % 1017,7 hPa 0,0 l/m 8,0 km/h (2 Bft) S 0,80 h 0,152 mm 158 W/m 13,1 C 19,9 C 11,5 km/h (2 Bft)
09/10/2007 18:00 19,0 C 68 % 1017,9 hPa 0,0 l/m 7,2 km/h (2 Bft) SO 0,53 h 0,127 mm 47 W/m 13,0 C 19,0 C 9,9 km/h (2 Bft)
09/10/2007 19:00 18,0 C 73 % 1018,3 hPa 0,0 l/m 5,2 km/h (1 Bft) O-SO 0,00 h 0,076 mm 0 W/m 13,0 C 18,0 C 6,9 km/h (2 Bft)
09/10/2007 20:00 17,4 C 76 % 1018,3 hPa 0,0 l/m 6,7 km/h (2 Bft) O 0,00 h 0,025 mm 0 W/m 13,1 C 17,4 C 8,8 km/h (2 Bft)
09/10/2007 21:00 16,9 C 78 % 1018,3 hPa 0,0 l/m 6,9 km/h (2 Bft) O 0,00 h 0,051 mm 0 W/m 13,1 C 16,9 C 9,1 km/h (2 Bft)
09/10/2007 22:00 16,2 C 80 % 1018,2 hPa 0,0 l/m 7,3 km/h (2 Bft) O-NO 0,00 h 0,051 mm 0 W/m 12,8 C 16,2 C 9,3 km/h (2 Bft)
09/10/2007 23:00 15,3 C 82 % 1018,2 hPa 0,0 l/m 7,3 km/h (2 Bft) O-NO 0,00 h 0,025 mm 0 W/m 12,3 C 15,3 C 9,9 km/h (2 Bft)
10/10/2007 00:00 15,0 C 83 % 1017,9 hPa 0,0 l/m 8,0 km/h (2 Bft) O-NO 0,00 h 0,025 mm 0 W/m 12,1 C 15,0 C 10,9 km/h (2 Bft)
10/10/2007 01:00 14,9 C 81 % 1017,6 hPa 0,0 l/m 8,4 km/h (2 Bft) O-NO 0,00 h 0,025 mm 0 W/m 11,6 C 14,9 C 11,4 km/h (2 Bft)
10/10/2007 02:00 14,7 C 79 % 1017,4 hPa 0,0 l/m 7,1 km/h (2 Bft) O-NO 0,00 h 0,025 mm 0 W/m 11,0 C 14,7 C 10,4 km/h (2 Bft)
10/10/2007 03:00 14,4 C 78 % 1016,8 hPa 0,0 l/m 7,9 km/h (2 Bft) O-NO 0,00 h 0,025 mm 0 W/m 10,6 C 14,4 C 11,5 km/h (2 Bft)
10/10/2007 04:00 14,3 C 77 % 1016,4 hPa 0,0 l/m 7,5 km/h (2 Bft) O-NO 0,00 h 0,051 mm 0 W/m 10,4 C 14,3 C 11,1 km/h (2 Bft)
10/10/2007 05:00 14,5 C 75 % 1016,3 hPa 0,0 l/m 4,9 km/h (1 Bft) NO 0,00 h 0,051 mm 0 W/m 10,2 C 14,5 C 7,5 km/h (2 Bft)
10/10/2007 06:00 14,6 C 74 % 1016,3 hPa 0,0 l/m 3,9 km/h (1 Bft) O-NO 0,00 h 0,025 mm 0 W/m 10,0 C 14,6 C 6,0 km/h (2 Bft)
10/10/2007 07:00 14,8 C 73 % 1016,3 hPa 0,0 l/m 2,6 km/h (1 Bft) O-NO 0,18 h 0,025 mm 16 W/m 10,0 C 14,8 C 4,1 km/h (1 Bft)
10/10/2007 08:00 15,4 C 72 % 1016,4 hPa 0,0 l/m 0,7 km/h (0 Bft) NO 0,75 h 0,025 mm 87 W/m 10,3 C 15,4 C 1,3 km/h (1 Bft)
10/10/2007 09:00 15,8 C 72 % 1016,7 hPa 0,0 l/m 1,9 km/h (1 Bft) N-NO 0,02 h 0,051 mm 122 W/m 10,8 C 15,8 C 4,1 km/h (1 Bft)
10/10/2007 10:00 18,7 C 65 % 1016,7 hPa 0,0 l/m 1,9 km/h (1 Bft) E 0,93 h 0,076 mm 410 W/m 12,0 C 18,7 C 3,9 km/h (1 Bft)
10/10/2007 11:00 19,9 C 62 % 1016,4 hPa 0,0 l/m 5,9 km/h (2 Bft) S 0,78 h 0,254 mm 459 W/m 12,4 C 19,9 C 9,0 km/h (2 Bft)
10/10/2007 12:00 19,9 C 63 % 1016,0 hPa 0,0 l/m 9,2 km/h (2 Bft) S-SE 0,62 h 0,305 mm 384 W/m 12,6 C 19,9 C 13,9 km/h (3 Bft)
10/10/2007 13:00 20,0 C 61 % 1015,6 hPa 0,0 l/m 11,4 km/h (2 Bft) S 0,75 h 0,279 mm 424 W/m 12,3 C 20,0 C 16,2 km/h (3 Bft)
10/10/2007 14:00 19,9 C 62 % 1015,2 hPa 0,0 l/m 10,8 km/h (2 Bft) S 0,75 h 0,305 mm 368 W/m 12,4 C 19,9 C 15,0 km/h (3 Bft)
10/10/2007 15:00 19,5 C 63 % 1015,1 hPa 0,0 l/m 11,3 km/h (2 Bft) S 0,43 h 0,279 mm 282 W/m 12,4 C 19,5 C 16,3 km/h (3 Bft)
10/10/2007 16:00 18,6 C 67 % 1015,2 hPa 0,0 l/m 5,8 km/h (2 Bft) S 0,00 h 0,229 mm 107 W/m 12,3 C 18,6 C 8,4 km/h (2 Bft)
10/10/2007 17:00 18,2 C 69 % 1015,2 hPa 0,0 l/m 3,9 km/h (1 Bft) S 0,00 h 0,102 mm 74 W/m 12,4 C 18,2 C 6,0 km/h (2 Bft)
10/10/2007 18:00 17,4 C 72 % 1015,3 hPa 0,0 l/m 3,0 km/h (1 Bft) S 0,02 h 0,076 mm 26 W/m 12,3 C 17,4 C 4,5 km/h (1 Bft)
10/10/2007 19:00 16,5 C 75 % 1015,8 hPa 0,0 l/m 2,9 km/h (1 Bft) S 0,00 h 0,025 mm 0 W/m 12,1 C 16,5 C 4,0 km/h (1 Bft)
10/10/2007 20:00 16,2 C 77 % 1016,1 hPa 0,0 l/m 4,4 km/h (1 Bft) O 0,00 h 0,025 mm 0 W/m 12,1 C 16,2 C 6,1 km/h (2 Bft)
10/10/2007 21:00 16,1 C 78 % 1016,2 hPa 0,0 l/m 4,3 km/h (1 Bft) O 0,00 h 0,025 mm 0 W/m 12,2 C 16,1 C 6,1 km/h (2 Bft)
10/10/2007 22:00 15,5 C 78 % 1016,2 hPa 0,0 l/m 4,6 km/h (1 Bft) O-NO 0,00 h 0,025 mm 0 W/m 11,6 C 15,5 C 6,2 km/h (2 Bft)
10/10/2007 23:00 15,0 C 79 % 1016,6 hPa 0,0 l/m 2,7 km/h (1 Bft) O-NO 0,00 h 0,025 mm 0 W/m 11,3 C 15,0 C 4,4 km/h (1 Bft)
11/10/2007 00:00 14,4 C 78 % 1016,7 hPa 0,0 l/m 3,4 km/h (1 Bft) O-NO 0,00 h 0,025 mm 0 W/m 10,5 C 14,4 C 5,7 km/h (1 Bft)
11/10/2007 01:00 14,0 C 75 % 1016,8 hPa 0,0 l/m 7,3 km/h (2 Bft) O-NO 0,00 h 0,025 mm 0 W/m 9,6 C 14,0 C 10,3 km/h (2 Bft)
11/10/2007 02:00 13,8 C 71 % 1016,9 hPa 0,0 l/m 6,3 km/h (2 Bft) O-NO 0,00 h 0,051 mm 0 W/m 8,7 C 13,8 C 9,1 km/h (2 Bft)
11/10/2007 03:00 13,7 C 69 % 1016,7 hPa 0,0 l/m 1,2 km/h (1 Bft) NO 0,00 h 0,051 mm 0 W/m 8,1 C 13,7 C 2,3 km/h (1 Bft)
11/10/2007 04:00 13,6 C 68 % 1016,4 hPa 0,0 l/m 3,7 km/h (1 Bft) NO 0,00 h 0,025 mm 0 W/m 7,8 C 13,6 C 5,4 km/h (1 Bft)
11/10/2007 05:00 13,2 C 69 % 1016,6 hPa 0,0 l/m 3,1 km/h (1 Bft) NO 0,00 h 0,051 mm 0 W/m 7,7 C 13,2 C 5,3 km/h (1 Bft)
11/10/2007 06:00 13,3 C 68 % 1016,9 hPa 0,0 l/m 4,0 km/h (1 Bft) O-NO 0,00 h 0,025 mm 0 W/m 7,5 C 13,3 C 5,4 km/h (1 Bft)
11/10/2007 07:00 13,1 C 67 % 1017,2 hPa 0,0 l/m 4,1 km/h (1 Bft) O-NO 0,02 h 0,051 mm 8 W/m 7,2 C 13,1 C 6,1 km/h (2 Bft)
11/10/2007 08:00 13,6 C 66 % 1017,8 hPa 0,0 l/m 2,9 km/h (1 Bft) NO 0,50 h 0,025 mm 75 W/m 7,5 C 13,6 C 4,7 km/h (1 Bft)
11/10/2007 09:00 16,3 C 59 % 1018,4 hPa 0,0 l/m 0,2 km/h (0 Bft) NO 1,00 h 0,051 mm 234 W/m 8,2 C 16,3 C 0,8 km/h (0 Bft)
11/10/2007 10:00 19,3 C 53 % 1018,7 hPa 0,0 l/m 1,1 km/h (1 Bft) E-SE 1,00 h 0,127 mm 386 W/m 9,6 C 19,3 C 2,8 km/h (1 Bft)
11/10/2007 11:00 20,4 C 53 % 1018,8 hPa 0,0 l/m 4,5 km/h (1 Bft) S-SO 1,00 h 0,229 mm 502 W/m 10,5 C 20,4 C 7,7 km/h (2 Bft)
11/10/2007 12:00 21,3 C 54 % 1018,8 hPa 0,0 l/m 6,7 km/h (2 Bft) E 1,00 h 0,330 mm 567 W/m 11,4 C 21,3 C 10,6 km/h (2 Bft)
11/10/2007 13:00 21,9 C 52 % 1018,8 hPa 0,0 l/m 7,0 km/h (2 Bft) E 1,00 h 0,381 mm 587 W/m 11,5 C 21,9 C 12,3 km/h (3 Bft)
11/10/2007 14:00 21,8 C 47 % 1018,6 hPa 0,0 l/m 7,4 km/h (2 Bft) E 0,93 h 0,406 mm 537 W/m 9,9 C 21,8 C 13,3 km/h (3 Bft)
11/10/2007 15:00 21,0 C 50 % 1018,7 hPa 0,0 l/m 5,7 km/h (1 Bft) E 0,82 h 0,381 mm 419 W/m 10,1 C 21,0 C 10,6 km/h (2 Bft)
11/10/2007 16:00 20,8 C 51 % 1018,4 hPa 0,0 l/m 4,7 km/h (1 Bft) S-SE 1,00 h 0,305 mm 305 W/m 10,3 C 20,8 C 8,5 km/h (2 Bft)
11/10/2007 17:00 20,0 C 54 % 1018,3 hPa 0,0 l/m 4,3 km/h (1 Bft) S 0,90 h 0,229 mm 155 W/m 10,5 C 20,0 C 7,3 km/h (2 Bft)
11/10/2007 18:00 18,5 C 59 % 1018,4 hPa 0,0 l/m 5,7 km/h (1 Bft) O-SO 0,00 h 0,127 mm 33 W/m 10,3 C 18,5 C 7,7 km/h (2 Bft)
11/10/2007 19:00 17,1 C 60 % 1018,7 hPa 0,0 l/m 10,0 km/h (2 Bft) O 0,00 h 0,051 mm 0 W/m 9,4 C 17,1 C 14,2 km/h (3 Bft)
11/10/2007 20:00 16,8 C 59 % 1018,9 hPa 0,0 l/m 12,6 km/h (3 Bft) O-NO 0,00 h 0,051 mm 0 W/m 8,7 C 16,8 C 17,5 km/h (3 Bft)
11/10/2007 21:00 16,6 C 60 % 1018,9 hPa 0,0 l/m 11,2 km/h (2 Bft) O-NO 0,00 h 0,102 mm 0 W/m 8,7 C 16,6 C 15,5 km/h (3 Bft)
11/10/2007 22:00 15,2 C 65 % 1019,0 hPa 0,0 l/m 6,3 km/h (2 Bft) NO 0,00 h 0,076 mm 0 W/m 8,6 C 15,2 C 8,9 km/h (2 Bft)
11/10/2007 23:00 14,7 C 66 % 1019,3 hPa 0,0 l/m 2,0 km/h (1 Bft) NO 0,00 h 0,051 mm 0 W/m 8,4 C 14,7 C 3,4 km/h (1 Bft)
12/10/2007 00:00 14,6 C 66 % 1019,0 hPa 0,0 l/m 5,7 km/h (1 Bft) O-NO 0,00 h 0,025 mm 0 W/m 8,3 C 14,6 C 7,6 km/h (2 Bft)
12/10/2007 01:00 14,1 C 67 % 1018,8 hPa 0,0 l/m 7,5 km/h (2 Bft) O-NO 0,00 h 0,051 mm 0 W/m 8,0 C 14,1 C 10,0 km/h (2 Bft)
12/10/2007 02:00 14,1 C 64 % 1018,7 hPa 0,0 l/m 13,7 km/h (3 Bft) NO 0,00 h 0,051 mm 0 W/m 7,4 C 14,1 C 18,0 km/h (3 Bft)
12/10/2007 03:00 14,0 C 64 % 1018,2 hPa 0,0 l/m 11,5 km/h (2 Bft) O-NO 0,00 h 0,076 mm 0 W/m 7,2 C 14,0 C 15,9 km/h (3 Bft)
12/10/2007 04:00 13,9 C 63 % 1017,7 hPa 0,0 l/m 10,6 km/h (2 Bft) O-NO 0,00 h 0,076 mm 0 W/m 7,1 C 13,9 C 14,7 km/h (3 Bft)
12/10/2007 05:00 14,0 C 62 % 1017,4 hPa 0,0 l/m 3,3 km/h (1 Bft) N-NO 0,00 h 0,076 mm 0 W/m 6,8 C 14,0 C 4,9 km/h (1 Bft)
12/10/2007 06:00 13,4 C 63 % 1017,6 hPa 0,0 l/m 3,3 km/h (1 Bft) O-NO 0,00 h 0,051 mm 0 W/m 6,4 C 13,4 C 5,3 km/h (1 Bft)
12/10/2007 07:00 13,7 C 60 % 1017,4 hPa 0,0 l/m 2,0 km/h (1 Bft) O-NO 0,00 h 0,051 mm 8 W/m 6,2 C 13,7 C 3,1 km/h (1 Bft)
12/10/2007 08:00 14,5 C 59 % 1017,4 hPa 0,0 l/m 3,3 km/h (1 Bft) O-NO 0,67 h 0,025 mm 83 W/m 6,5 C 14,5 C 4,9 km/h (1 Bft)
12/10/2007 09:00 17,0 C 53 % 1017,4 hPa 0,0 l/m 0,6 km/h (0 Bft) O-SO 1,00 h 0,076 mm 243 W/m 7,3 C 17,0 C 1,8 km/h (1 Bft)
12/10/2007 10:00 19,4 C 48 % 1017,4 hPa 0,0 l/m 1,7 km/h (1 Bft) E-NE 1,00 h 0,152 mm 393 W/m 8,0 C 19,4 C 3,7 km/h (1 Bft)
12/10/2007 11:00 21,4 C 44 % 1017,2 hPa 0,0 l/m 5,2 km/h (1 Bft) S 1,00 h 0,254 mm 508 W/m 8,7 C 21,4 C 8,5 km/h (2 Bft)
12/10/2007 12:00 22,3 C 44 % 1017,1 hPa 0,0 l/m 8,8 km/h (2 Bft) S 1,00 h 0,356 mm 571 W/m 9,5 C 22,3 C 13,9 km/h (3 Bft)
12/10/2007 13:00 22,5 C 46 % 1016,5 hPa 0,0 l/m 14,4 km/h (3 Bft) S 1,00 h 0,432 mm 594 W/m 10,2 C 22,5 C 19,9 km/h (4 Bft)
12/10/2007 14:00 22,6 C 46 % 1015,7 hPa 0,0 l/m 11,9 km/h (2 Bft) S 1,00 h 0,483 mm 560 W/m 10,2 C 22,6 C 16,9 km/h (3 Bft)
12/10/2007 15:00 22,6 C 45 % 1015,4 hPa 0,0 l/m 7,9 km/h (2 Bft) S 1,00 h 0,432 mm 479 W/m 10,1 C 22,6 C 12,7 km/h (3 Bft)
12/10/2007 16:00 21,5 C 52 % 1015,2 hPa 0,0 l/m 8,8 km/h (2 Bft) S-SE 1,00 h 0,356 mm 317 W/m 11,3 C 21,5 C 12,9 km/h (3 Bft)
12/10/2007 17:00 20,4 C 56 % 1015,1 hPa 0,0 l/m 8,2 km/h (2 Bft) S-SE 0,73 h 0,254 mm 156 W/m 11,2 C 20,4 C 11,6 km/h (2 Bft)
12/10/2007 18:00 18,8 C 60 % 1015,3 hPa 0,0 l/m 7,4 km/h (2 Bft) S-SO 0,20 h 0,152 mm 33 W/m 10,9 C 18,8 C 9,8 km/h (2 Bft)
12/10/2007 19:00 17,0 C 66 % 1015,7 hPa 0,0 l/m 3,2 km/h (1 Bft) SO 0,00 h 0,076 mm 0 W/m 10,6 C 17,0 C 4,6 km/h (1 Bft)
12/10/2007 20:00 16,2 C 69 % 1015,5 hPa 0,0 l/m 3,3 km/h (1 Bft) SO 0,00 h 0,025 mm 0 W/m 10,4 C 16,2 C 4,6 km/h (1 Bft)
12/10/2007 21:00 15,7 C 70 % 1015,4 hPa 0,0 l/m 3,9 km/h (1 Bft) NO 0,00 h 0,051 mm 0 W/m 10,3 C 15,7 C 5,9 km/h (2 Bft)
12/10/2007 22:00 15,2 C 72 % 1015,5 hPa 0,0 l/m 3,8 km/h (1 Bft) NO 0,00 h 0,051 mm 0 W/m 10,2 C 15,2 C 5,4 km/h (1 Bft)
12/10/2007 23:00 14,9 C 72 % 1015,5 hPa 0,0 l/m 3,0 km/h (1 Bft) NO 0,00 h 0,025 mm 0 W/m 9,8 C 14,9 C 5,0 km/h (1 Bft)
13/10/2007 00:00 14,9 C 68 % 1015,1 hPa 0,0 l/m 3,8 km/h (1 Bft) NO 0,00 h 0,025 mm 0 W/m 9,1 C 14,9 C 5,5 km/h (1 Bft)
13/10/2007 01:00 14,7 C 67 % 1014,9 hPa 0,0 l/m 4,9 km/h (1 Bft) O-NO 0,00 h 0,051 mm 0 W/m 8,7 C 14,7 C 7,0 km/h (2 Bft)
13/10/2007 02:00 14,3 C 67 % 1015,0 hPa 0,0 l/m 4,2 km/h (1 Bft) O-NO 0,00 h 0,051 mm 0 W/m 8,1 C 14,3 C 6,0 km/h (2 Bft)
13/10/2007 03:00 14,5 C 64 % 1015,0 hPa 0,0 l/m 2,8 km/h (1 Bft) N-NO 0,00 h 0,051 mm 0 W/m 7,7 C 14,5 C 3,9 km/h (1 Bft)
13/10/2007 04:00 13,5 C 66 % 1015,0 hPa 0,0 l/m 3,2 km/h (1 Bft) N 0,00 h 0,051 mm 0 W/m 7,3 C 13,5 C 5,1 km/h (1 Bft)
13/10/2007 05:00 13,7 C 67 % 1014,7 hPa 0,0 l/m 4,3 km/h (1 Bft) O 0,00 h 0,051 mm 0 W/m 7,6 C 13,7 C 5,8 km/h (2 Bft)
13/10/2007 06:00 13,0 C 67 % 1014,9 hPa 0,0 l/m 3,6 km/h (1 Bft) NO 0,00 h 0,051 mm 0 W/m 6,9 C 13,0 C 5,5 km/h (1 Bft)
13/10/2007 07:00 12,9 C 68 % 1015,3 hPa 0,0 l/m 1,0 km/h (0 Bft) N-NO 0,03 h 0,051 mm 10 W/m 7,1 C 12,9 C 1,9 km/h (1 Bft)
13/10/2007 08:00 13,7 C 66 % 1016,2 hPa 0,0 l/m 1,3 km/h (1 Bft) N-NO 0,75 h 0,025 mm 83 W/m 7,5 C 13,7 C 2,2 km/h (1 Bft)
13/10/2007 09:00 16,4 C 60 % 1016,8 hPa 0,0 l/m 2,0 km/h (1 Bft) N 1,00 h 0,051 mm 235 W/m 8,6 C 16,4 C 3,4 km/h (1 Bft)
13/10/2007 10:00 18,9 C 55 % 1016,8 hPa 0,0 l/m 3,3 km/h (1 Bft) S 1,00 h 0,152 mm 370 W/m 9,7 C 18,9 C 5,5 km/h (1 Bft)
13/10/2007 11:00 20,9 C 49 % 1016,9 hPa 0,0 l/m 4,5 km/h (1 Bft) S-SE 1,00 h 0,229 mm 500 W/m 9,8 C 20,9 C 7,5 km/h (2 Bft)
13/10/2007 12:00 21,9 C 47 % 1017,0 hPa 0,0 l/m 5,8 km/h (2 Bft) SE 1,00 h 0,330 mm 575 W/m 10,1 C 21,9 C 9,4 km/h (2 Bft)
13/10/2007 13:00 22,0 C 54 % 1016,7 hPa 0,0 l/m 7,9 km/h (2 Bft) E 1,00 h 0,406 mm 589 W/m 12,1 C 22,0 C 11,7 km/h (2 Bft)
13/10/2007 14:00 21,8 C 56 % 1016,6 hPa 0,0 l/m 6,8 km/h (2 Bft) E 1,00 h 0,406 mm 552 W/m 12,6 C 21,8 C 11,1 km/h (2 Bft)
13/10/2007 15:00 21,5 C 57 % 1016,5 hPa 0,0 l/m 5,2 km/h (1 Bft) E 1,00 h 0,381 mm 458 W/m 12,7 C 21,5 C 8,4 km/h (2 Bft)
13/10/2007 16:00 21,2 C 64 % 1016,6 hPa 0,0 l/m 4,1 km/h (1 Bft) E 1,00 h 0,305 mm 317 W/m 14,1 C 21,2 C 7,4 km/h (2 Bft)
13/10/2007 17:00 20,3 C 66 % 1016,7 hPa 0,0 l/m 0,9 km/h (0 Bft) E-SE 1,00 h 0,203 mm 162 W/m 13,8 C 20,3 C 2,8 km/h (1 Bft)
13/10/2007 18:00 18,8 C 72 % 1016,9 hPa 0,0 l/m 0,2 km/h (0 Bft) E-SE 0,28 h 0,102 mm 36 W/m 13,7 C 18,8 C 1,0 km/h (0 Bft)
13/10/2007 19:00 16,7 C 80 % 1017,3 hPa 0,0 l/m 2,1 km/h (1 Bft) NO 0,00 h 0,025 mm 0 W/m 13,3 C 16,7 C 3,2 km/h (1 Bft)
13/10/2007 20:00 16,3 C 79 % 1017,5 hPa 0,0 l/m 5,1 km/h (1 Bft) O-NO 0,00 h 0,000 mm 0 W/m 12,7 C 16,3 C 8,1 km/h (2 Bft)
13/10/2007 21:00 15,8 C 75 % 1017,8 hPa 0,0 l/m 4,4 km/h (1 Bft) NO 0,00 h 0,025 mm 0 W/m 11,4 C 15,8 C 7,1 km/h (2 Bft)
13/10/2007 22:00 15,9 C 68 % 1018,0 hPa 0,0 l/m 4,8 km/h (1 Bft) O-NO 0,00 h 0,025 mm 0 W/m 10,1 C 15,9 C 7,7 km/h (2 Bft)
13/10/2007 23:00 16,0 C 66 % 1018,4 hPa 0,0 l/m 3,8 km/h (1 Bft) NO 0,00 h 0,051 mm 0 W/m 9,6 C 16,0 C 5,6 km/h (1 Bft)
14/10/2007 00:00 15,8 C 66 % 1018,8 hPa 0,0 l/m 3,9 km/h (1 Bft) NO 0,00 h 0,051 mm 0 W/m 9,4 C 15,8 C 5,5 km/h (1 Bft)
14/10/2007 01:00 15,4 C 67 % 1019,2 hPa 0,0 l/m 4,4 km/h (1 Bft) O-NO 0,00 h 0,051 mm 0 W/m 9,3 C 15,4 C 6,4 km/h (2 Bft)
14/10/2007 02:00 15,6 C 66 % 1019,3 hPa 0,0 l/m 6,7 km/h (2 Bft) O 0,00 h 0,051 mm 0 W/m 9,2 C 15,6 C 8,3 km/h (2 Bft)
14/10/2007 03:00 14,9 C 67 % 1019,3 hPa 0,0 l/m 2,9 km/h (1 Bft) O-NO 0,00 h 0,051 mm 0 W/m 8,9 C 14,9 C 4,5 km/h (1 Bft)
14/10/2007 04:00 13,7 C 72 % 1019,5 hPa 0,0 l/m 3,9 km/h (1 Bft) NE 0,00 h 0,051 mm 0 W/m 8,7 C 13,7 C 6,3 km/h (2 Bft)
14/10/2007 05:00 14,7 C 66 % 1019,4 hPa 0,0 l/m 3,8 km/h (1 Bft) N-NO 0,00 h 0,025 mm 0 W/m 8,5 C 14,7 C 6,0 km/h (2 Bft)
14/10/2007 06:00 14,8 C 65 % 1019,7 hPa 0,0 l/m 2,6 km/h (1 Bft) N 0,00 h 0,051 mm 0 W/m 8,2 C 14,8 C 5,0 km/h (1 Bft)
14/10/2007 07:00 14,4 C 67 % 1020,0 hPa 0,0 l/m 2,8 km/h (1 Bft) N 0,03 h 0,051 mm 9 W/m 8,3 C 14,4 C 5,6 km/h (1 Bft)
14/10/2007 08:00 14,8 C 69 % 1020,4 hPa 0,0 l/m 2,5 km/h (1 Bft) N-NO 0,07 h 0,025 mm 62 W/m 9,1 C 14,8 C 4,7 km/h (1 Bft)
14/10/2007 09:00 17,3 C 65 % 1020,7 hPa 0,0 l/m 1,0 km/h (0 Bft) N 0,67 h 0,051 mm 172 W/m 10,6 C 17,3 C 3,2 km/h (1 Bft)
14/10/2007 10:00 19,3 C 63 % 1021,0 hPa 0,0 l/m 2,5 km/h (1 Bft) N-NE 0,80 h 0,102 mm 310 W/m 12,2 C 19,3 C 4,9 km/h (1 Bft)
14/10/2007 11:00 20,2 C 63 % 1021,1 hPa 0,0 l/m 6,7 km/h (2 Bft) NE 0,95 h 0,203 mm 450 W/m 13,0 C 20,2 C 10,2 km/h (2 Bft)
14/10/2007 12:00 20,3 C 63 % 1021,0 hPa 0,0 l/m 6,8 km/h (2 Bft) E 0,95 h 0,305 mm 517 W/m 13,0 C 20,3 C 11,5 km/h (2 Bft)
14/10/2007 13:00 20,7 C 62 % 1020,8 hPa 0,0 l/m 7,9 km/h (2 Bft) E 0,78 h 0,330 mm 482 W/m 13,2 C 20,7 C 13,5 km/h (3 Bft)
14/10/2007 14:00 20,6 C 62 % 1020,2 hPa 0,0 l/m 8,7 km/h (2 Bft) E 1,00 h 0,330 mm 509 W/m 13,1 C 20,6 C 13,5 km/h (3 Bft)
14/10/2007 15:00 20,7 C 61 % 1019,9 hPa 0,0 l/m 5,3 km/h (1 Bft) E 1,00 h 0,356 mm 409 W/m 12,8 C 20,7 C 9,6 km/h (2 Bft)
14/10/2007 16:00 20,1 C 63 % 1019,9 hPa 0,0 l/m 3,5 km/h (1 Bft) E-SE 1,00 h 0,279 mm 279 W/m 12,8 C 20,1 C 6,6 km/h (2 Bft)
14/10/2007 17:00 19,1 C 68 % 1019,7 hPa 0,0 l/m 1,2 km/h (1 Bft) E 0,42 h 0,178 mm 122 W/m 12,9 C 19,1 C 2,9 km/h (1 Bft)
14/10/2007 18:00 17,6 C 72 % 1019,7 hPa 0,0 l/m 0,3 km/h (0 Bft) E 0,03 h 0,076 mm 24 W/m 12,6 C 17,6 C 0,7 km/h (0 Bft)
14/10/2007 19:00 17,0 C 75 % 1019,9 hPa 0,0 l/m 1,3 km/h (1 Bft) E 0,00 h 0,025 mm 0 W/m 12,5 C 17,0 C 2,0 km/h (1 Bft)
14/10/2007 20:00 17,0 C 73 % 1019,9 hPa 0,0 l/m 1,5 km/h (1 Bft) O-NO 0,00 h 0,000 mm 0 W/m 12,2 C 17,0 C 2,5 km/h (1 Bft)
14/10/2007 21:00 16,8 C 71 % 1020,1 hPa 0,0 l/m 0,1 km/h (0 Bft) O-NO 0,00 h 0,025 mm 0 W/m 11,6 C 16,8 C 0,5 km/h (0 Bft)
14/10/2007 22:00 16,4 C 73 % 1020,5 hPa 0,0 l/m 0,0 km/h (0 Bft) N 0,00 h 0,025 mm 0 W/m 11,5 C 16,4 C 0,0 km/h (0 Bft)
14/10/2007 23:00 16,4 C 74 % 1020,6 hPa 0,0 l/m 0,0 km/h (0 Bft) N 0,00 h 0,025 mm 0 W/m 11,8 C 16,4 C 0,2 km/h (0 Bft)
Min-Date _ 13/10/07 12/10/07 13/10/07 - 08/10/07 - - - - 12/10/07 13/10/07 08/10/07
_ Min-Heure 06:13 15:12 05:00 - 01:14 - - - - 07:50 06:13 01:21
Minimum _ 12,8 C 41 % 1014,6 hPa - 0,0 km/h (0 Bft) - - - - 6,0 C 12,8 C 0,0 km/h (0 Bft)
Max-Date _ 09/10/07 09/10/07 14/10/07 08/10/07 08/10/07 - 08/10/07 12/10/07 08/10/07 08/10/07 09/10/07 08/10/07
_ Max-Heure 13:12 03:56 11:15 00:00 12:16 - 07:47 14:00 12:42 12:54 13:12 13:28
Maximum _ 23,3 C 89 % 1021,1 hPa 0,0 l/m 20,9 km/h
O-SO (4 Bft)
- 0,02 h 0,483 mm 728 W/m 16,4 C 23,3 C 29,0 km/h
S-SE (5 Bft)
Moyenne _ 17,4 C 68 % 1017,4 hPa #0,0 l/m 4,8 km/h (1 Bft) O-NO #55:47 h #20,712 mm 294 W/m 11,3 C 17,4 C 7,4 km/h (2 Bft)
Roquefort les pins